Time;durP1;ratioP1;P1;durP2;ratioP2;P2;SDS_P1;SDS_P2;PMS_P1;PMS_P2;Temp;Humidity;BMP_temperature;BMP_pressure;BME280_temperature;BME280_humidity;BME280_pressure;Samples;Min_cycle;Max_cycle;Signal;HPM_P1;HPM_P2
2023/06/27 00:01:53;;;;;;;16.58;2.33;;;;;;;19.13;48.31;101738.94;5075286;28;20053;-63
2023/06/27 00:04:23;;;;;;;8.40;2.22;;;;;;;19.27;48.26;101739.41;5060146;28;20048;-62
2023/06/27 00:06:50;;;;;;;13.23;2.22;;;;;;;19.41;47.95;101739.94;5096014;28;20055;-63
2023/06/27 00:09:18;;;;;;;8.25;1.80;;;;;;;18.61;50.46;101738.66;5095890;28;20063;-63
2023/06/27 00:11:45;;;;;;;8.88;2.10;;;;;;;18.74;50.30;101736.75;5095375;28;20054;-62
2023/06/27 00:14:13;;;;;;;8.27;1.83;;;;;;;18.88;49.93;101737.25;5089009;28;20043;-62
2023/06/27 00:16:41;;;;;;;12.88;2.53;;;;;;;18.79;50.65;101748.47;5075250;28;20055;-62
2023/06/27 00:19:10;;;;;;;11.00;2.47;;;;;;;18.55;51.17;101744.81;5069939;28;20120;-63
2023/06/27 00:21:40;;;;;;;6.78;1.85;;;;;;;18.43;51.56;101739.97;5055195;28;20563;-62
2023/06/27 00:24:07;;;;;;;8.77;1.95;;;;;;;18.35;51.95;101748.38;5053977;28;20057;-63
2023/06/27 00:26:35;;;;;;;11.63;2.15;;;;;;;18.61;51.07;101740.63;5053768;28;20044;-63
2023/06/27 00:29:02;;;;;;;4.07;1.60;;;;;;;18.40;52.05;101743.44;5076665;28;20426;-65
2023/06/27 00:31:31;;;;;;;7.95;1.73;;;;;;;18.29;52.25;101746.97;5066588;28;20056;-63
2023/06/27 00:34:00;;;;;;;8.85;1.80;;;;;;;18.21;52.90;101743.06;5054158;28;20052;-62
2023/06/27 00:36:27;;;;;;;8.98;2.03;;;;;;;18.25;53.13;101749.63;5054922;28;20052;-62
2023/06/27 00:38:55;;;;;;;8.40;1.60;;;;;;;18.33;52.78;101743.13;5036865;28;20053;-63
2023/06/27 00:41:22;;;;;;;8.90;2.03;;;;;;;18.37;52.72;101740.47;5066904;28;20118;-62
2023/06/27 00:43:50;;;;;;;8.88;2.13;;;;;;;18.41;51.75;101747.06;5075301;28;20130;-63
2023/06/27 00:46:37;;;;;;;8.18;2.00;;;;;;;18.08;53.43;101746.13;5073571;28;20073;-63
2023/06/27 00:49:09;;;;;;;7.35;1.88;;;;;;;18.25;52.58;101737.63;5074769;28;20056;-63
2023/06/27 00:51:40;;;;;;;9.25;2.15;;;;;;;18.25;53.11;101743.22;5074476;28;20155;-63
2023/06/27 00:54:08;;;;;;;11.52;2.00;;;;;;;18.41;52.66;101747.06;5035291;28;20053;-63
2023/06/27 00:56:36;;;;;;;9.18;1.90;;;;;;;18.13;53.69;101752.34;5057101;28;20041;-62
2023/06/27 00:59:04;;;;;;;8.45;1.75;;;;;;;18.23;53.45;101754.72;5073048;28;20060;-63
2023/06/27 01:01:34;;;;;;;8.48;2.00;;;;;;;18.53;53.07;101744.31;5053232;28;20048;-63
2023/06/27 01:04:03;;;;;;;6.57;1.98;;;;;;;18.46;53.01;101742.06;5036616;28;20049;-62
2023/06/27 01:06:36;;;;;;;8.13;1.70;;;;;;;18.60;52.72;101744.59;5094562;28;20040;-62
2023/06/27 01:09:08;;;;;;;7.95;1.60;;;;;;;18.21;52.16;101751.44;5093539;28;20048;-62
2023/06/27 01:11:44;;;;;;;9.90;1.70;;;;;;;18.28;52.49;101746.13;5077603;28;20423;-62
2023/06/27 01:14:12;;;;;;;9.20;1.52;;;;;;;18.50;51.50;101739.41;5074468;28;20052;-63
2023/06/27 01:16:40;;;;;;;7.70;1.67;;;;;;;18.06;51.98;101740.06;5056146;28;20056;-62
2023/06/27 01:19:12;;;;;;;9.48;2.10;;;;;;;18.00;52.55;101747.81;5067513;28;20053;-63
2023/06/27 01:21:39;;;;;;;10.68;1.77;;;;;;;17.99;52.60;101747.00;5036759;28;20049;-62
2023/06/27 01:24:07;;;;;;;6.72;1.73;;;;;;;17.89;52.92;101743.78;5042575;28;20043;-62
2023/06/27 01:26:35;;;;;;;8.35;1.70;;;;;;;17.70;53.48;101740.63;5074355;28;20053;-65
2023/06/27 01:29:02;;;;;;;9.90;1.83;;;;;;;17.71;53.83;101733.91;5062588;28;20052;-63
2023/06/27 01:31:37;;;;;;;6.72;2.10;;;;;;;18.14;52.91;101742.81;5076107;28;20051;-63
2023/06/27 01:34:16;;;;;;;12.65;2.13;;;;;;;17.79;53.56;101742.22;5094280;28;20491;-63
2023/06/27 01:37:36;;;;;;;6.30;1.75;;;;;;;18.09;53.14;101733.81;5072695;28;20468;-62
2023/06/27 01:40:09;;;;;;;10.83;2.30;;;;;;;17.94;53.81;101735.22;5069334;28;20049;-62
2023/06/27 01:42:41;;;;;;;8.18;1.98;;;;;;;18.07;53.62;101731.38;5060516;28;20057;-63
2023/06/27 01:45:10;;;;;;;8.27;2.00;;;;;;;18.24;52.98;101730.41;5053742;28;20057;-63
2023/06/27 01:47:41;;;;;;;10.15;2.05;;;;;;;18.04;53.69;101734.03;5057489;28;20503;-63
2023/06/27 01:50:10;;;;;;;6.72;2.00;;;;;;;17.92;53.61;101718.03;5045621;28;20049;-62
2023/06/27 01:52:39;;;;;;;11.25;2.13;;;;;;;17.90;53.52;101723.94;5061744;28;20037;-63
2023/06/27 01:55:08;;;;;;;7.38;1.92;;;;;;;17.92;53.38;101731.97;5063833;28;20045;-63
2023/06/27 01:57:36;;;;;;;6.70;1.80;;;;;;;17.98;53.08;101734.22;5066128;28;20036;-63
2023/06/27 02:00:05;;;;;;;7.97;1.65;;;;;;;17.98;53.04;101734.22;5061060;28;20057;-63
2023/06/27 02:02:41;;;;;;;12.80;2.30;;;;;;;17.85;53.48;101734.47;5053318;28;20497;-63
2023/06/27 02:05:09;;;;;;;7.30;1.75;;;;;;;18.07;53.30;101731.38;5064277;28;20071;-63
2023/06/27 02:07:37;;;;;;;11.40;1.92;;;;;;;18.12;53.34;101728.38;5077748;28;20056;-62
2023/06/27 02:10:05;;;;;;;9.82;1.70;;;;;;;18.29;53.34;101731.03;5071051;28;20070;-62
2023/06/27 02:12:32;;;;;;;7.15;1.55;;;;;;;17.89;54.54;101736.25;5072336;28;20068;-62
2023/06/27 02:14:59;;;;;;;11.85;2.15;;;;;;;18.04;54.56;101734.03;5070199;28;20055;-63
2023/06/27 02:17:27;;;;;;;14.50;2.78;;;;;;;17.86;54.73;101734.13;5065166;28;20052;-64
2023/06/27 02:19:54;;;;;;;7.43;1.73;;;;;;;18.06;54.20;101729.75;5043663;28;20053;-63
2023/06/27 02:22:21;;;;;;;12.52;2.50;;;;;;;17.86;54.42;101736.94;5070111;28;20055;-63
2023/06/27 02:24:49;;;;;;;13.07;2.38;;;;;;;18.08;53.62;101733.00;5058268;28;20053;-63
2023/06/27 02:27:16;;;;;;;13.93;2.50;;;;;;;17.77;54.60;101738.94;5052310;28;20041;-63
2023/06/27 02:29:44;;;;;;;8.13;1.70;;;;;;;17.58;55.26;101740.53;5067177;28;20051;-64
2023/06/27 02:32:11;;;;;;;13.93;2.10;;;;;;;17.35;56.37;101747.47;5062128;28;20432;-63
2023/06/27 02:34:38;;;;;;;12.07;2.42;;;;;;;17.51;56.11;101748.59;5052448;28;20045;-62
2023/06/27 02:37:06;;;;;;;10.43;2.00;;;;;;;17.39;56.47;101743.69;5050666;28;20041;-62
2023/06/27 02:39:33;;;;;;;11.35;2.22;;;;;;;17.50;56.16;101742.22;5051735;28;20465;-62
2023/06/27 02:42:01;;;;;;;10.93;2.10;;;;;;;17.51;55.94;101751.38;5049928;28;20041;-63
2023/06/27 02:44:29;;;;;;;10.02;2.30;;;;;;;17.46;56.14;101749.59;5034523;28;20055;-63
2023/06/27 02:46:56;;;;;;;7.93;2.00;;;;;;;17.43;56.70;101747.47;5033184;28;20544;-60
2023/06/27 02:49:23;;;;;;;8.82;2.10;;;;;;;17.73;56.29;101737.19;5072165;28;20056;-62
2023/06/27 02:51:51;;;;;;;12.23;2.75;;;;;;;17.92;55.38;101740.34;5070496;28;20059;-62
2023/06/27 02:54:18;;;;;;;6.93;2.30;;;;;;;17.93;55.57;101744.75;5035080;28;20063;-62
2023/06/27 02:56:46;;;;;;;6.82;2.03;;;;;;;18.09;54.62;101744.97;5057239;28;20059;-62
2023/06/27 02:59:13;;;;;;;7.55;2.03;;;;;;;18.17;54.68;101742.13;5052795;28;20041;-62
2023/06/27 03:01:41;;;;;;;8.98;1.80;;;;;;;18.17;54.45;101742.13;5053926;28;20048;-62
2023/06/27 03:04:10;;;;;;;7.85;2.17;;;;;;;18.10;55.05;101746.63;5071203;28;20055;-62
2023/06/27 03:06:47;;;;;;;8.02;1.90;;;;;;;17.86;55.71;101748.06;5090256;28;20506;-63
2023/06/27 03:09:16;;;;;;;10.55;2.30;;;;;;;18.18;54.85;101745.72;5050457;28;1142253;-64
2023/06/27 03:11:44;;;;;;;10.85;1.90;;;;;;;18.06;54.75;101738.13;5090952;28;20515;-61
2023/06/27 03:14:17;;;;;;;11.00;2.03;;;;;;;18.12;54.67;101742.31;5091174;28;20078;-63
2023/06/27 03:16:47;;;;;;;9.27;1.95;;;;;;;18.08;55.26;101738.56;5084871;28;20059;-61
2023/06/27 03:19:14;;;;;;;11.05;2.35;;;;;;;17.90;55.74;101737.88;5048490;28;20045;-62
2023/06/27 03:21:43;;;;;;;11.68;2.42;;;;;;;18.08;55.90;101740.56;5052200;28;20045;-62
2023/06/27 03:24:10;;;;;;;12.70;2.10;;;;;;;18.13;55.09;101737.56;5052154;28;20048;-62
2023/06/27 03:26:43;;;;;;;9.98;2.17;;;;;;;18.13;54.99;101729.19;5050850;28;20049;-62
2023/06/27 03:29:11;;;;;;;8.27;2.03;;;;;;;18.06;55.19;101740.06;5050515;28;20036;-62
2023/06/27 03:31:38;;;;;;;9.40;2.15;;;;;;;18.03;55.37;101738.78;5085664;28;20385;-62
2023/06/27 03:34:06;;;;;;;8.40;2.42;;;;;;;17.87;55.79;101732.97;5069608;28;20063;-61
2023/06/27 03:36:33;;;;;;;13.05;2.72;;;;;;;17.81;56.48;101739.91;5070952;28;20048;-63
2023/06/27 03:39:03;;;;;;;11.25;2.00;;;;;;;17.88;56.20;101723.47;5053183;28;20044;-62
2023/06/27 03:41:31;;;;;;;10.15;2.67;;;;;;;17.71;56.84;101731.13;5056753;28;20048;-62
2023/06/27 03:43:58;;;;;;;8.98;1.92;;;;;;;17.94;56.32;101722.09;5050079;28;20060;-62
2023/06/27 03:46:25;;;;;;;6.03;1.65;;;;;;;17.93;56.42;101720.47;5038688;28;20040;-62
2023/06/27 03:48:56;;;;;;;10.20;2.10;;;;;;;18.14;55.84;101726.06;5071967;28;20051;-63
2023/06/27 03:51:25;;;;;;;8.02;1.77;;;;;;;18.14;55.96;101730.81;5070305;28;20060;-62
2023/06/27 03:53:52;;;;;;;9.75;2.38;;;;;;;17.76;56.83;101728.97;5070318;28;20045;-63
2023/06/27 03:56:20;;;;;;;9.27;2.28;;;;;;;17.76;56.99;101731.75;5054184;28;20083;-63
2023/06/27 03:58:47;;;;;;;9.60;2.80;;;;;;;17.78;57.26;101731.41;5069492;28;20044;-63
2023/06/27 04:01:15;;;;;;;10.10;2.33;;;;;;;17.80;57.29;101727.13;5050333;28;20416;-63
2023/06/27 04:03:43;;;;;;;9.20;2.45;;;;;;;17.86;57.17;101731.34;5050055;28;20293;-66
2023/06/27 04:06:11;;;;;;;11.20;2.50;;;;;;;17.89;57.24;101730.66;5086494;28;20055;-66
2023/06/27 04:08:38;;;;;;;10.82;2.30;;;;;;;17.81;57.48;101722.38;5090580;28;20720;-66
2023/06/27 04:11:06;;;;;;;13.98;2.45;;;;;;;18.14;57.28;101728.03;5093045;28;20063;-66
2023/06/27 04:13:33;;;;;;;13.32;1.98;;;;;;;18.25;56.75;101730.09;5082862;28;20060;-63
2023/06/27 04:16:04;;;;;;;9.90;2.40;;;;;;;18.17;56.76;101722.59;5054128;28;20085;-63
2023/06/27 04:18:31;;;;;;;10.18;1.95;;;;;;;18.12;57.28;101728.38;5055381;28;20049;-63
2023/06/27 04:20:58;;;;;;;11.63;2.58;;;;;;;18.08;57.94;101727.41;5053283;28;20059;-63
2023/06/27 04:23:26;;;;;;;12.07;2.97;;;;;;;17.96;58.26;101730.13;5053547;28;20075;-63
2023/06/27 04:26:04;;;;;;;10.57;2.45;;;;;;;18.06;58.14;101737.28;5053601;28;20048;-63
2023/06/27 04:28:32;;;;;;;14.45;2.85;;;;;;;17.96;58.74;101739.31;5042522;28;20049;-62
2023/06/27 04:31:00;;;;;;;14.77;2.88;;;;;;;17.83;59.67;101739.56;5095037;28;20048;-62
2023/06/27 04:33:28;;;;;;;10.18;2.35;;;;;;;17.88;59.30;101734.63;5095073;28;20192;-62
2023/06/27 04:36:00;;;;;;;9.32;2.50;;;;;;;18.05;58.99;101736.47;5094116;28;20047;-62
2023/06/27 04:38:29;;;;;;;10.30;2.72;;;;;;;17.77;59.90;101735.34;5095429;28;20451;-62
2023/06/27 04:40:56;;;;;;;10.50;2.90;;;;;;;17.88;60.06;101729.06;5085151;28;20044;-62
2023/06/27 04:43:26;;;;;;;14.13;2.85;;;;;;;18.08;59.54;101732.19;5067651;28;20048;-62
2023/06/27 04:45:54;;;;;;;12.00;3.00;;;;;;;18.12;59.55;101731.16;5060436;28;20060;-62
2023/06/27 04:48:22;;;;;;;11.25;2.95;;;;;;;18.17;58.97;101730.13;5074610;28;20410;-63
2023/06/27 04:50:49;;;;;;;11.65;2.80;;;;;;;18.27;58.77;101722.19;5069246;28;20053;-63
2023/06/27 04:53:20;;;;;;;8.82;2.80;;;;;;;18.51;57.93;101721.53;5068124;28;20044;-63
2023/06/27 04:55:48;;;;;;;9.73;2.90;;;;;;;18.42;58.35;101720.78;5034403;28;20053;-62
2023/06/27 04:58:15;;;;;;;13.50;3.20;;;;;;;18.37;58.68;101721.78;5071229;28;20037;-62
2023/06/27 05:00:44;;;;;;;12.52;3.00;;;;;;;18.48;58.50;101722.22;5057891;28;20055;-63
2023/06/27 05:03:13;;;;;;;12.25;3.00;;;;;;;18.33;58.70;101722.78;5072917;28;20052;-64
2023/06/27 05:05:41;;;;;;;11.93;3.05;;;;;;;18.56;58.25;101721.31;5088535;28;20056;-62
2023/06/27 05:08:10;;;;;;;12.60;3.22;;;;;;;18.38;58.80;101703.88;5065047;28;20048;-62
2023/06/27 05:10:37;;;;;;;11.23;2.85;;;;;;;18.20;59.71;101719.13;5073006;28;20064;-62
2023/06/27 05:13:05;;;;;;;18.17;2.92;;;;;;;18.30;59.88;101726.28;5065677;28;20053;-63
2023/06/27 05:15:32;;;;;;;13.88;3.58;;;;;;;18.20;60.26;101729.47;5074056;28;20499;-61
2023/06/27 05:18:06;;;;;;;11.13;3.03;;;;;;;18.44;59.85;101730.44;5073969;28;20052;-63
2023/06/27 05:20:36;;;;;;;13.05;2.75;;;;;;;18.37;59.77;101724.56;5072675;28;20057;-62
2023/06/27 05:23:05;;;;;;;11.98;2.80;;;;;;;18.13;61.25;101735.59;5073265;28;20060;-63
2023/06/27 05:25:33;;;;;;;12.45;2.63;;;;;;;18.21;61.10;101733.88;5046220;28;20056;-64
2023/06/27 05:28:01;;;;;;;17.30;3.15;;;;;;;18.12;61.36;101742.31;5052838;28;20048;-64
2023/06/27 05:30:29;;;;;;;17.17;3.53;;;;;;;18.09;61.92;101739.41;5089900;28;20052;-66
2023/06/27 05:33:01;;;;;;;13.75;3.63;;;;;;;18.02;62.03;101750.25;5078935;28;20040;-66
2023/06/27 05:35:29;;;;;;;13.40;2.80;;;;;;;18.25;62.33;101751.59;5060436;28;20063;-66
2023/06/27 05:37:58;;;;;;;14.20;2.85;;;;;;;18.38;61.58;101751.31;5052709;28;20048;-66
2023/06/27 05:40:25;;;;;;;16.73;3.63;;;;;;;18.54;61.29;101754.31;5068383;28;20032;-66
2023/06/27 05:42:53;;;;;;;13.05;3.10;;;;;;;18.38;61.72;101751.31;5072120;28;20534;-66
2023/06/27 05:45:20;;;;;;;16.70;3.13;;;;;;;18.10;62.59;101750.19;5072242;28;20067;-67
2023/06/27 05:47:47;;;;;;;19.15;3.17;;;;;;;18.07;63.03;101741.69;5073685;28;20056;-67
2023/06/27 05:50:15;;;;;;;15.55;3.20;;;;;;;18.37;62.42;101735.72;5053696;28;20053;-68
2023/06/27 05:52:42;;;;;;;12.93;3.38;;;;;;;18.36;62.72;101734.09;5061464;28;20052;-67
2023/06/27 05:55:10;;;;;;;9.80;3.08;;;;;;;18.76;61.72;101732.44;5072955;28;20551;-69
2023/06/27 05:57:37;;;;;;;16.30;3.88;;;;;;;18.43;62.88;101720.44;5067854;28;20048;-67
2023/06/27 06:00:10;;;;;;;12.05;2.85;;;;;;;18.78;62.06;101724.53;5068028;28;20071;-68
2023/06/27 06:02:44;;;;;;;12.65;2.75;;;;;;;18.99;61.60;101730.03;5064945;28;20060;-66
2023/06/27 06:05:11;;;;;;;14.60;2.90;;;;;;;19.07;61.34;101732.75;5069322;28;20056;-67
2023/06/27 06:07:42;;;;;;;16.30;3.17;;;;;;;18.98;61.41;101731.22;5069850;28;20052;-67
2023/06/27 06:10:12;;;;;;;13.90;2.60;;;;;;;18.74;61.80;101739.53;5064690;28;20679;-68
2023/06/27 06:12:40;;;;;;;15.45;3.20;;;;;;;19.16;61.35;101724.25;5073985;28;20052;-67
2023/06/27 06:15:07;;;;;;;13.23;3.38;;;;;;;19.38;60.46;101726.66;5054961;28;20060;-65
2023/06/27 06:17:35;;;;;;;23.42;3.25;;;;;;;19.32;60.50;101725.25;5053026;28;20512;-66
2023/06/27 06:20:09;;;;;;;18.27;3.22;;;;;;;19.22;60.70;101720.09;5052407;28;20052;-66
2023/06/27 06:22:39;;;;;;;18.10;3.03;;;;;;;19.64;60.04;101735.53;5059231;28;20416;-66
2023/06/27 06:25:07;;;;;;;17.10;3.10;;;;;;;19.26;60.81;101729.41;5062259;28;20065;-66
2023/06/27 06:27:35;;;;;;;14.95;3.15;;;;;;;18.35;64.04;101732.47;5059382;28;20041;-66
2023/06/27 06:30:02;;;;;;;16.10;3.55;;;;;;;17.96;66.02;101735.69;5056563;28;20052;-65
2023/06/27 06:32:30;;;;;;;16.67;3.10;;;;;;;17.93;67.22;101736.38;5043979;28;20053;-63
2023/06/27 06:35:01;;;;;;;16.33;2.85;;;;;;;18.63;65.08;101725.19;5064674;28;20051;-61
2023/06/27 06:37:29;;;;;;;13.75;2.63;;;;;;;18.86;62.31;101743.16;5062185;28;20052;-62
2023/06/27 06:39:57;;;;;;;13.40;3.60;;;;;;;17.51;68.31;101757.78;5059884;28;20488;-62
2023/06/27 06:42:24;;;;;;;18.02;3.80;;;;;;;18.13;68.84;101746.75;5052484;28;20543;-62
2023/06/27 06:44:51;;;;;;;17.98;3.20;;;;;;;18.11;67.29;101740.69;5050243;28;20499;-62
2023/06/27 06:47:19;;;;;;;12.73;2.80;;;;;;;17.73;68.35;101743.56;5061196;28;20330;-62
2023/06/27 06:49:46;;;;;;;18.17;3.63;;;;;;;17.20;70.35;101748.84;5055290;28;20044;-62
2023/06/27 06:52:14;;;;;;;14.35;3.03;;;;;;;17.16;71.31;101742.31;5055834;28;20059;-63
2023/06/27 06:54:43;;;;;;;14.05;3.20;;;;;;;18.33;67.44;101745.94;5056563;28;20053;-62
2023/06/27 06:57:11;;;;;;;21.45;3.85;;;;;;;18.29;66.47;101735.81;5059258;28;20566;-62
2023/06/27 06:59:38;;;;;;;16.17;3.40;;;;;;;19.09;63.63;101747.19;5059645;28;20041;-68
2023/06/27 07:02:05;;;;;;;16.13;3.65;;;;;;;18.12;65.69;101749.84;5055411;28;20492;-70
2023/06/27 07:04:33;;;;;;;15.95;3.25;;;;;;;18.18;66.94;101742.94;5053212;28;20454;-69
2023/06/27 07:07:01;;;;;;;18.85;3.65;;;;;;;17.92;66.92;101745.91;5056813;28;20049;-70
2023/06/27 07:09:28;;;;;;;10.85;2.97;;;;;;;18.07;66.60;101742.53;5059145;28;20459;-70
2023/06/27 07:11:56;;;;;;;17.02;3.90;;;;;;;18.59;65.41;101742.94;5053548;28;20076;-70
2023/06/27 07:14:23;;;;;;;20.02;3.17;;;;;;;19.05;63.13;101743.47;5055677;28;20048;-70
2023/06/27 07:16:54;;;;;;;13.68;3.00;;;;;;;19.00;63.38;101743.66;5061770;28;20597;-68
2023/06/27 07:19:21;;;;;;;19.17;3.65;;;;;;;19.51;60.90;101739.47;5036229;28;20771;-70
2023/06/27 07:21:49;;;;;;;14.23;2.95;;;;;;;19.80;nan;101750.44;5054336;28;20040;-69
2023/06/27 07:24:16;;;;;;;16.23;3.33;;;;;;;20.12;58.32;101748.63;5055461;28;20052;-68
2023/06/27 07:26:44;;;;;;;12.57;3.42;;;;;;;20.26;57.48;101748.28;5059639;28;20052;-70
2023/06/27 07:29:11;;;;;;;16.33;4.03;;;;;;;19.61;59.70;101758.59;5054160;28;20049;-68
2023/06/27 07:31:38;;;;;;;13.95;3.05;;;;;;;19.55;60.22;101753.56;5055634;28;20052;-69
2023/06/27 07:34:05;;;;;;;16.13;3.63;;;;;;;20.22;57.60;101744.56;5056144;28;20052;-68
2023/06/27 07:36:33;;;;;;;18.67;3.40;;;;;;;20.50;57.43;101745.41;5054381;28;20057;-69
2023/06/27 07:39:00;;;;;;;12.52;3.42;;;;;;;19.81;60.06;101746.47;5059853;28;20722;-63
2023/06/27 07:41:29;;;;;;;15.93;3.45;;;;;;;19.83;59.93;101744.13;5060984;28;20041;-63
2023/06/27 07:43:56;;;;;;;15.20;3.03;;;;;;;20.45;57.46;101751.25;5053138;28;20045;-63
2023/06/27 07:46:24;;;;;;;24.67;3.47;;;;;;;20.69;56.18;101752.00;5057181;28;20060;-63
2023/06/27 07:48:51;;;;;;;18.15;3.58;;;;;;;20.02;57.40;101755.53;5063008;28;20052;-62
2023/06/27 07:51:18;;;;;;;13.55;3.42;;;;;;;20.39;58.06;101753.50;5066125;28;20049;-62
2023/06/27 07:53:46;;;;;;;25.52;4.40;;;;;;;20.30;58.21;101752.81;5057980;28;20049;-64
2023/06/27 07:56:13;;;;;;;16.35;2.75;;;;;;;20.43;56.44;101743.22;5060209;28;20045;-63
2023/06/27 07:58:40;;;;;;;13.82;3.13;;;;;;;20.61;56.05;101755.75;5065427;28;20072;-63
2023/06/27 08:01:08;;;;;;;15.77;3.45;;;;;;;20.05;59.03;101756.78;5058055;28;20045;-63
2023/06/27 08:03:36;;;;;;;12.02;3.08;;;;;;;20.74;56.54;101751.72;5058524;28;20048;-63
2023/06/27 08:06:04;;;;;;;13.07;3.08;;;;;;;21.26;54.40;101754.38;5058998;28;20056;-62
2023/06/27 08:08:32;;;;;;;14.27;3.30;;;;;;;21.14;54.94;101751.66;5062395;28;20080;-62
2023/06/27 08:10:59;;;;;;;12.60;3.13;;;;;;;21.50;53.69;101748.59;5061181;28;20053;-66
2023/06/27 08:13:27;;;;;;;18.65;3.22;;;;;;;20.93;54.79;101739.84;5022263;28;20049;-68
2023/06/27 08:15:54;;;;;;;14.45;3.08;;;;;;;20.73;55.43;101741.69;5058969;28;20048;-70
2023/06/27 08:18:22;;;;;;;9.85;3.15;;;;;;;21.14;54.67;101737.66;5058469;28;20060;-69
2023/06/27 08:20:49;;;;;;;17.23;3.55;;;;;;;21.09;54.61;101733.13;5054070;28;20040;-70
2023/06/27 08:23:17;;;;;;;14.75;3.10;;;;;;;21.37;53.60;101730.25;5058001;28;20057;-69
2023/06/27 08:25:44;;;;;;;11.93;2.60;;;;;;;21.61;52.68;101726.44;5060947;28;20048;-69
2023/06/27 08:28:11;;;;;;;12.23;3.58;;;;;;;21.80;51.37;101729.31;5071737;28;20072;-68
2023/06/27 08:30:39;;;;;;;17.45;3.67;;;;;;;21.61;51.96;101726.44;5055219;28;20045;-67
2023/06/27 08:33:07;;;;;;;13.82;3.08;;;;;;;21.81;51.24;101731.75;5062231;28;20060;-69
2023/06/27 08:35:35;;;;;;;15.10;3.58;;;;;;;21.45;51.90;101740.47;5056713;28;20061;-70
2023/06/27 08:38:03;;;;;;;15.05;3.03;;;;;;;21.78;50.77;101729.69;5061284;28;20408;-69
2023/06/27 08:40:33;;;;;;;10.80;2.72;;;;;;;21.93;50.13;101714.81;5056693;28;20041;-69
2023/06/27 08:43:01;;;;;;;14.35;3.10;;;;;;;21.39;50.73;101724.28;5060838;28;20436;-69
2023/06/27 08:45:28;;;;;;;12.65;2.80;;;;;;;20.58;51.62;101725.66;5047614;28;20055;-72
2023/06/27 08:47:56;;;;;;;16.05;3.53;;;;;;;19.91;53.42;101720.00;5056843;28;20048;-71
2023/06/27 08:50:25;;;;;;;15.45;2.83;;;;;;;20.58;53.05;101725.66;5046649;28;20052;-69
2023/06/27 08:52:56;;;;;;;9.85;2.45;;;;;;;21.50;50.54;101720.56;5057875;28;20439;-69
2023/06/27 08:55:42;;;;;;;12.38;3.28;;;;;;;21.30;50.51;101712.44;5048076;28;20143;-69
2023/06/27 08:58:14;;;;;;;12.85;2.55;;;;;;;21.04;49.31;101716.56;5051611;28;20044;-69
2023/06/27 09:00:43;;;;;;;13.35;2.88;;;;;;;21.11;50.03;101710.34;5060098;28;20048;-69
2023/06/27 09:03:11;;;;;;;14.13;2.88;;;;;;;21.18;49.44;101713.34;5062601;28;20048;-69
2023/06/27 09:05:39;;;;;;;10.43;2.67;;;;;;;21.73;47.89;101715.91;5066958;28;20056;-70
2023/06/27 09:08:07;;;;;;;13.77;2.83;;;;;;;22.08;47.03;101697.13;5067525;28;20048;-70
2023/06/27 09:10:35;;;;;;;12.25;3.40;;;;;;;21.96;46.98;101697.25;5065883;28;20070;-70
2023/06/27 09:13:02;;;;;;;12.43;2.90;;;;;;;22.16;46.90;101682.06;5062557;28;20045;-70
2023/06/27 09:15:29;;;;;;;15.20;3.08;;;;;;;21.94;45.95;101690.38;5049780;28;20064;-70
2023/06/27 09:17:57;;;;;;;18.13;2.63;;;;;;;21.72;45.30;101696.66;5065146;28;20049;-64
2023/06/27 09:20:24;;;;;;;15.45;3.63;;;;;;;21.19;46.16;101701.78;5054001;28;20044;-63
2023/06/27 09:22:54;;;;;;;15.82;3.55;;;;;;;21.28;46.46;101690.38;5045831;28;20717;-63
2023/06/27 09:25:23;;;;;;;;;;;;;;;21.94;44.83;101682.78;5058171;28;20048;-64
2023/06/27 09:27:51;;;;;;;12.23;2.90;;;;;;;22.17;44.30;101678.09;5049974;28;19920;-62
2023/06/27 09:30:23;;;;;;;8.25;2.30;;;;;;;21.93;44.01;101671.94;5057368;28;20048;-64
2023/06/27 09:32:52;;;;;;;9.07;1.88;;;;;;;21.29;44.55;101675.19;5059082;28;20049;-63
2023/06/27 09:35:21;;;;;;;9.40;2.60;;;;;;;21.67;44.60;101658.47;5052216;28;20051;-64
2023/06/27 09:38:08;;;;;;;9.73;2.40;;;;;;;22.08;43.75;101665.44;5057843;28;20452;-64
2023/06/27 09:40:38;;;;;;;11.15;2.60;;;;;;;22.24;43.44;101650.19;5053672;28;20543;-63
2023/06/27 09:43:07;;;;;;;10.98;2.65;;;;;;;22.58;42.67;101651.25;5062702;28;20048;-64
2023/06/27 09:45:34;;;;;;;12.57;2.70;;;;;;;22.56;41.99;101652.84;5054944;28;20056;-65
2023/06/27 09:48:02;;;;;;;8.57;2.50;;;;;;;22.36;41.71;101654.81;5063062;28;20044;-63
2023/06/27 09:50:31;;;;;;;9.45;2.85;;;;;;;22.45;41.83;101638.56;5055977;28;20037;-65
2023/06/27 09:52:59;;;;;;;11.40;2.90;;;;;;;22.63;41.24;101636.91;5063255;28;21773;-63
2023/06/27 09:55:27;;;;;;;12.98;2.72;;;;;;;23.07;40.49;101640.13;5059852;28;20041;-63
2023/06/27 09:57:58;;;;;;;8.30;2.22;;;;;;;22.61;40.89;101636.50;5059944;28;20052;-64
2023/06/27 10:00:26;;;;;;;8.27;2.42;;;;;;;22.73;40.93;101641.13;5059506;28;20433;-63
2023/06/27 10:02:54;;;;;;;12.70;2.88;;;;;;;22.01;42.98;101640.84;5053729;28;20698;-63
2023/06/27 10:05:22;;;;;;;13.70;2.65;;;;;;;21.94;42.78;101645.50;5061105;28;20045;-70
2023/06/27 10:07:51;;;;;;;12.23;2.67;;;;;;;21.38;43.94;101639.38;5044066;28;20053;-73
2023/06/27 10:10:20;;;;;;;10.10;2.20;;;;;;;21.67;43.64;101632.44;5060238;28;20040;-63
2023/06/27 10:12:48;;;;;;;9.10;2.42;;;;;;;22.22;42.78;101630.06;5058217;28;20389;-63
2023/06/27 10:15:17;;;;;;;12.38;2.90;;;;;;;22.50;41.52;101632.63;5063437;28;20048;-63
2023/06/27 10:17:45;;;;;;;8.45;2.45;;;;;;;22.33;41.70;101633.09;5061243;28;20055;-64
2023/06/27 10:20:13;;;;;;;11.60;2.50;;;;;;;23.01;40.58;101621.97;5057909;28;20044;-64
2023/06/27 10:22:43;;;;;;;9.35;2.90;;;;;;;23.07;40.54;101626.06;5060051;28;20836;-64
2023/06/27 10:25:10;;;;;;;;;;;;;;;23.19;40.48;101625.84;5063764;28;20041;-64
2023/06/27 10:27:38;;;;;;;13.18;3.40;;;;;;;22.99;40.37;101616.72;5054107;28;19928;-65
2023/06/27 10:30:23;;;;;;;11.40;2.70;;;;;;;22.86;40.52;101629.31;5059377;28;20095;-63
2023/06/27 10:32:51;;;;;;;9.52;3.00;;;;;;;22.83;40.50;101630.06;5061338;28;20052;-64
2023/06/27 10:35:26;;;;;;;13.02;2.90;;;;;;;22.78;38.93;101618.34;5059046;28;20055;-63
2023/06/27 10:38:14;;;;;;;10.93;2.40;;;;;;;22.55;39.45;101626.75;5063882;28;20067;-63
2023/06/27 10:40:58;;;;;;;9.27;3.13;;;;;;;22.72;39.60;101629.06;5060799;28;20060;-62
2023/06/27 10:43:39;;;;;;;12.40;2.90;;;;;;;22.73;39.75;101629.88;5066366;28;20048;-63
2023/06/27 10:46:08;;;;;;;12.38;2.60;;;;;;;22.95;39.02;101629.06;5071835;28;20060;-64
2023/06/27 10:49:03;;;;;;;14.95;7.38;;;;;;;22.61;38.47;101642.13;5064548;28;20507;-63
2023/06/27 10:51:41;;;;;;;27.30;14.30;;;;;;;21.69;40.08;101642.09;5067054;28;20049;-63
2023/06/27 10:54:09;;;;;;;22.17;7.95;;;;;;;22.12;39.75;101641.88;5047615;28;20064;-71
2023/06/27 10:56:42;;;;;;;10.68;2.92;;;;;;;22.19;39.01;101627.19;5070574;28;20048;-70
2023/06/27 10:59:12;;;;;;;12.40;3.72;;;;;;;22.00;39.00;101649.66;5065717;28;20049;-70
2023/06/27 11:02:04;;;;;;;13.77;4.78;;;;;;;22.19;39.42;101641.22;5060094;28;21731;-69
2023/06/27 11:04:43;;;;;;;9.25;2.10;;;;;;;22.14;38.04;101631.09;5062160;28;20064;-70
2023/06/27 11:07:17;;;;;;;14.30;6.28;;;;;;;22.37;38.82;101635.97;5054342;28;20044;-69
2023/06/27 11:09:54;;;;;;;16.42;3.58;;;;;;;22.14;39.76;101628.28;5054754;28;20252;-66
2023/06/27 11:12:22;;;;;;;12.48;2.42;;;;;;;22.42;39.97;101616.81;5056651;28;20045;-68
2023/06/27 11:14:53;;;;;;;10.50;2.70;;;;;;;22.95;39.03;101621.47;5058916;28;20053;-66
2023/06/27 11:17:23;;;;;;;8.65;3.25;;;;;;;23.31;38.83;101617.25;5059310;28;20055;-66
2023/06/27 11:19:50;;;;;;;12.23;3.53;;;;;;;23.09;39.83;101616.06;5057370;28;20049;-67
2023/06/27 11:22:18;;;;;;;10.20;3.25;;;;;;;23.40;39.36;101606.53;5060845;28;20071;-66
2023/06/27 11:24:45;;;;;;;10.80;2.70;;;;;;;23.17;39.61;101606.56;5055635;28;20052;-66
2023/06/27 11:27:13;;;;;;;10.45;2.83;;;;;;;22.83;39.79;101618.84;5048650;28;20037;-66
2023/06/27 11:29:41;;;;;;;8.27;2.38;;;;;;;22.93;40.05;101606.97;5058396;28;20397;-66